createdAt,value
2023-03-27T00:00:32.173Z,96.10
2023-03-27T00:03:34.319Z,96.20
2023-03-27T00:06:36.109Z,96.00
2023-03-27T00:09:39.066Z,96.10
2023-03-27T00:12:41.669Z,96.10
2023-03-27T00:15:43.408Z,96.20
2023-03-27T00:18:45.714Z,96.20
2023-03-27T00:21:47.722Z,96.70
2023-03-27T00:24:49.632Z,96.20
2023-03-27T00:27:51.831Z,96.20
2023-03-27T00:30:55.775Z,96.10
2023-03-27T00:33:57.905Z,96.10
2023-03-27T00:36:59.875Z,96.00
2023-03-27T00:40:01.865Z,95.60
2023-03-27T00:43:30.161Z,96.30
2023-03-27T00:46:51.310Z,95.60
2023-03-27T00:49:53.089Z,96.40
2023-03-27T00:53:05.587Z,96.40
2023-03-27T00:56:07.670Z,96.70
2023-03-27T00:59:14.177Z,96.20
2023-03-27T01:02:17.132Z,96.20
2023-03-27T01:05:20.130Z,96.20
2023-03-27T01:08:24.439Z,96.20
2023-03-27T01:11:50.045Z,96.10
2023-03-27T01:15:09.631Z,95.70
2023-03-27T01:18:30.440Z,96.30
2023-03-27T01:21:41.175Z,96.20
2023-03-27T01:25:15.987Z,95.70
2023-03-27T01:28:46.889Z,95.70
2023-03-27T01:32:04.421Z,95.80
2023-03-27T01:35:28.730Z,95.80
2023-03-27T01:39:05.213Z,96.50
2023-03-27T01:42:22.068Z,95.90
2023-03-27T01:45:48.723Z,95.90
2023-03-27T01:49:02.248Z,95.80
2023-03-27T01:52:10.096Z,95.90
2023-03-27T01:55:16.757Z,96.70
2023-03-27T01:58:28.016Z,96.60
2023-03-27T02:01:38.300Z,96.50
2023-03-27T02:05:10.211Z,95.80
2023-03-27T02:08:17.064Z,96.50
2023-03-27T02:11:19.017Z,96.50
2023-03-27T02:14:26.497Z,96.60
2023-03-27T02:17:29.129Z,96.80
2023-03-27T02:20:32.566Z,96.90
2023-03-27T02:23:37.536Z,97.00
2023-03-27T02:26:39.162Z,96.80
2023-03-27T02:29:43.705Z,96.80
2023-03-27T02:33:05.575Z,96.20
2023-03-27T02:36:31.499Z,97.00
2023-03-27T02:39:48.748Z,96.50
2023-03-27T02:43:19.297Z,96.50
2023-03-27T02:46:27.751Z,96.50
2023-03-27T02:49:35.962Z,96.60
2023-03-27T02:52:47.925Z,97.20
2023-03-27T02:55:57.363Z,97.10
2023-03-27T02:59:08.553Z,96.60
2023-03-27T03:02:16.370Z,96.60
2023-03-27T03:05:22.054Z,97.30
2023-03-27T03:08:24.450Z,97.20
2023-03-27T03:11:26.764Z,97.40
2023-03-27T03:14:33.573Z,97.20
2023-03-27T03:17:35.387Z,97.20
2023-03-27T03:20:37.076Z,97.20
2023-03-27T03:23:39.066Z,97.30
2023-03-27T03:26:40.671Z,97.40
2023-03-27T03:29:44.133Z,97.20
2023-03-27T03:32:47.126Z,97.40
2023-03-27T03:35:50.139Z,97.50
2023-03-27T03:38:54.230Z,97.50
2023-03-27T03:41:55.948Z,97.70
2023-03-27T03:44:57.497Z,97.40
2023-03-27T03:47:59.111Z,97.60
2023-03-27T03:51:00.780Z,97.60
2023-03-27T03:54:03.133Z,97.70
2023-03-27T03:57:05.453Z,97.60
2023-03-27T04:00:14.153Z,97.20
2023-03-27T04:03:16.245Z,97.50
2023-03-27T04:06:20.879Z,97.50
2023-03-27T04:09:22.780Z,97.40
2023-03-27T04:12:24.777Z,97.30
2023-03-27T04:15:27.036Z,97.20
2023-03-27T04:18:30.563Z,97.20
2023-03-27T04:21:33.055Z,97.30
2023-03-27T04:24:34.743Z,97.30
2023-03-27T04:27:37.318Z,97.00
2023-03-27T04:30:38.935Z,96.70
2023-03-27T04:33:46.338Z,97.70
2023-03-27T04:36:48.134Z,97.20
2023-03-27T04:39:49.784Z,97.10
2023-03-27T04:42:51.366Z,97.30
2023-03-27T04:45:53.532Z,97.30
2023-03-27T04:48:56.304Z,97.10
2023-03-27T04:51:58.040Z,97.40
2023-03-27T04:55:01.515Z,97.30
2023-03-27T04:58:04.091Z,97.10
2023-03-27T05:01:05.975Z,97.20
2023-03-27T05:04:07.948Z,97.00
2023-03-27T05:07:12.061Z,97.10
2023-03-27T05:10:15.695Z,97.10
2023-03-27T05:13:17.339Z,97.10
2023-03-27T05:16:18.969Z,97.00
2023-03-27T05:19:20.607Z,97.20
2023-03-27T05:22:22.230Z,97.00
2023-03-27T05:25:24.563Z,97.00
2023-03-27T05:28:26.135Z,97.20
2023-03-27T05:31:28.256Z,97.00
2023-03-27T05:34:30.067Z,97.50
2023-03-27T05:37:31.657Z,97.00
2023-03-27T05:40:34.098Z,96.90
2023-03-27T05:43:35.837Z,96.90
2023-03-27T05:46:37.537Z,96.80
2023-03-27T05:49:39.885Z,96.80
2023-03-27T05:52:41.846Z,97.20
2023-03-27T05:55:44.304Z,96.90
2023-03-27T05:58:45.994Z,96.90
2023-03-27T06:01:49.121Z,96.70
2023-03-27T06:04:51.919Z,96.90
2023-03-27T06:07:53.546Z,96.80
2023-03-27T06:10:55.503Z,96.70
2023-03-27T06:13:58.500Z,96.70
2023-03-27T06:17:00.338Z,96.60
2023-03-27T06:20:02.763Z,96.80
2023-03-27T06:23:09.127Z,96.70
2023-03-27T06:26:10.856Z,97.10
2023-03-27T06:29:13.199Z,96.80
2023-03-27T06:32:16.797Z,96.90
2023-03-27T06:35:20.042Z,96.80
2023-03-27T06:38:21.885Z,97.00
2023-03-27T06:41:23.949Z,96.80
2023-03-27T06:44:25.803Z,96.60
2023-03-27T06:47:29.704Z,96.40
2023-03-27T06:50:32.510Z,96.60
2023-03-27T06:53:37.428Z,96.50
2023-03-27T06:56:39.863Z,96.30
2023-03-27T06:59:41.789Z,96.20
2023-03-27T07:02:43.616Z,96.00
2023-03-27T07:05:45.575Z,95.70
2023-03-27T07:08:49.017Z,95.60
2023-03-27T07:11:50.797Z,95.40
2023-03-27T07:14:52.499Z,95.50
2023-03-27T07:17:54.961Z,95.60
2023-03-27T07:20:56.799Z,95.80
2023-03-27T07:23:58.566Z,95.90
2023-03-27T07:27:00.124Z,95.50
2023-03-27T07:30:02.475Z,95.60
2023-03-27T07:33:05.481Z,95.30
2023-03-27T07:36:08.597Z,95.20
2023-03-27T07:39:12.462Z,95.00
2023-03-27T07:42:14.206Z,95.30
2023-03-27T07:45:17.274Z,95.00
2023-03-27T07:48:19.125Z,95.30
2023-03-27T07:51:21.130Z,95.00
2023-03-27T07:54:24.322Z,95.10
2023-03-27T07:57:25.998Z,95.20
2023-03-27T08:00:27.788Z,95.10
2023-03-27T08:03:30.572Z,95.30
2023-03-27T08:06:32.381Z,95.60
2023-03-27T08:09:34.149Z,95.60
2023-03-27T08:12:36.714Z,95.20
2023-03-27T08:15:38.970Z,95.50
2023-03-27T08:18:40.626Z,95.10
2023-03-27T08:21:42.175Z,95.20
2023-03-27T08:24:43.776Z,95.00
2023-03-27T08:27:45.904Z,95.10
2023-03-27T08:30:47.482Z,94.80
2023-03-27T08:33:49.620Z,94.80
2023-03-27T08:36:52.474Z,94.70
2023-03-27T08:39:58.692Z,94.30
2023-03-27T08:43:09.379Z,94.50
2023-03-27T08:46:30.315Z,94.60
2023-03-27T08:49:36.185Z,93.50
2023-03-27T08:52:39.942Z,94.60
2023-03-27T08:55:44.431Z,93.90
2023-03-27T08:58:46.699Z,93.70
2023-03-27T09:02:06.549Z,93.90
2023-03-27T09:05:47.877Z,93.10
2023-03-27T09:09:07.051Z,93.10
2023-03-27T09:12:26.121Z,93.20
2023-03-27T09:15:31.616Z,92.90
2023-03-27T09:18:53.043Z,93.40
2023-03-27T09:22:10.633Z,92.90
2023-03-27T09:25:31.219Z,93.60
2023-03-27T09:29:19.991Z,93.10
2023-03-27T09:32:22.427Z,93.10
2023-03-27T09:35:24.759Z,94.00
2023-03-27T09:38:36.970Z,93.50
2023-03-27T09:42:19.228Z,93.10
2023-03-27T09:45:21.695Z,92.20
2023-03-27T09:48:39.876Z,93.00
2023-03-27T09:51:44.952Z,92.70
2023-03-27T09:54:55.813Z,92.90
2023-03-27T09:58:14.052Z,92.30
2023-03-27T10:01:17.460Z,92.50
2023-03-27T10:04:22.898Z,92.30
2023-03-27T10:07:25.807Z,92.20
2023-03-27T10:10:32.387Z,92.00
2023-03-27T10:13:34.567Z,92.40
2023-03-27T10:16:41.523Z,92.70
2023-03-27T10:19:44.929Z,92.60
2023-03-27T10:23:07.898Z,92.30
2023-03-27T10:26:13.848Z,91.10
2023-03-27T10:29:39.768Z,91.50
2023-03-27T10:32:47.285Z,91.60
2023-03-27T10:35:49.478Z,91.70
2023-03-27T10:39:05.076Z,91.60
2023-03-27T10:42:09.088Z,90.80
2023-03-27T10:45:21.473Z,90.50
2023-03-27T10:48:51.618Z,90.60
2023-03-27T10:52:11.872Z,88.70
2023-03-27T10:55:24.635Z,90.10
2023-03-27T10:58:48.316Z,90.30
2023-03-27T11:01:55.528Z,91.10
2023-03-27T11:05:05.603Z,90.90
2023-03-27T11:08:28.003Z,90.90
2023-03-27T11:11:36.741Z,90.10
2023-03-27T11:14:47.328Z,90.90
2023-03-27T11:18:04.436Z,91.20
2023-03-27T11:21:14.207Z,91.30
2023-03-27T11:24:29.731Z,93.10
2023-03-27T11:27:35.798Z,94.20
2023-03-27T11:31:12.076Z,94.60
2023-03-27T11:34:28.869Z,95.20
2023-03-27T11:37:39.945Z,95.10
2023-03-27T11:40:45.806Z,94.20
2023-03-27T11:43:47.635Z,94.30
2023-03-27T11:47:02.139Z,93.60
2023-03-27T11:50:18.676Z,93.60
2023-03-27T11:53:29.147Z,92.30
2023-03-27T11:56:49.072Z,91.80
2023-03-27T12:00:12.076Z,91.90
2023-03-27T12:03:40.221Z,92.20
2023-03-27T12:07:04.337Z,92.80
2023-03-27T12:10:28.401Z,91.80
2023-03-27T12:14:00.886Z,92.00
2023-03-27T12:17:36.247Z,92.50
2023-03-27T12:21:05.347Z,92.70
2023-03-27T12:24:23.641Z,92.30
2023-03-27T12:27:44.719Z,92.00
2023-03-27T12:30:58.791Z,91.90
2023-03-27T12:34:13.691Z,90.50
2023-03-27T12:37:16.256Z,90.20
2023-03-27T12:40:28.515Z,90.80
2023-03-27T12:43:39.577Z,91.30
2023-03-27T12:46:42.614Z,90.80
2023-03-27T12:49:48.391Z,90.60
2023-03-27T12:52:53.019Z,90.40
2023-03-27T12:56:10.272Z,90.10
2023-03-27T12:59:19.288Z,89.40
2023-03-27T13:03:16.988Z,90.00
2023-03-27T13:06:35.638Z,88.70
2023-03-27T13:10:07.429Z,90.10
2023-03-27T13:13:44.235Z,91.50
2023-03-27T13:17:20.815Z,91.60
2023-03-27T13:20:46.838Z,92.60
2023-03-27T13:24:03.424Z,92.10
2023-03-27T13:27:26.867Z,92.30
2023-03-27T13:30:50.355Z,93.10
2023-03-27T13:34:27.261Z,94.10
2023-03-27T13:37:36.406Z,93.70
2023-03-27T13:40:40.415Z,94.30
2023-03-27T13:43:42.605Z,94.30
2023-03-27T13:46:50.184Z,93.90
2023-03-27T13:50:25.794Z,93.90
2023-03-27T13:53:51.881Z,93.10
2023-03-27T13:56:59.294Z,93.70
2023-03-27T14:00:19.067Z,92.90
2023-03-27T14:03:45.121Z,92.50
2023-03-27T14:07:04.827Z,92.90
2023-03-27T14:10:26.955Z,92.30
2023-03-27T14:13:49.807Z,92.00
2023-03-27T14:17:28.947Z,91.60
2023-03-27T14:20:37.892Z,91.50
2023-03-27T14:24:08.456Z,91.00
2023-03-27T14:27:18.409Z,90.90
2023-03-27T14:30:22.743Z,91.50
2023-03-27T14:33:25.105Z,91.60
2023-03-27T14:36:30.863Z,91.20
2023-03-27T14:39:37.671Z,91.40
2023-03-27T14:42:39.214Z,90.90
2023-03-27T14:45:41.166Z,91.10
2023-03-27T14:48:45.865Z,91.50
2023-03-27T14:51:49.594Z,91.60
2023-03-27T14:54:55.560Z,91.80
2023-03-27T14:58:10.885Z,92.00
2023-03-27T15:01:17.129Z,91.80
2023-03-27T15:04:19.614Z,92.20
2023-03-27T15:07:28.360Z,92.20
2023-03-27T15:10:31.657Z,92.00
2023-03-27T15:13:36.399Z,91.40
2023-03-27T15:16:38.993Z,90.90
2023-03-27T15:19:48.418Z,90.30
2023-03-27T15:23:00.112Z,88.00
2023-03-27T15:26:08.045Z,88.50
2023-03-27T15:29:14.816Z,87.90
2023-03-27T15:32:21.955Z,86.40
2023-03-27T15:35:37.456Z,86.90
2023-03-27T15:38:39.498Z,85.50
2023-03-27T15:41:42.634Z,86.10
2023-03-27T15:44:44.222Z,86.40
2023-03-27T15:48:18.834Z,86.40
2023-03-27T15:51:20.386Z,85.40
2023-03-27T15:54:32.144Z,86.80
2023-03-27T15:57:33.770Z,86.50
2023-03-27T16:00:35.431Z,87.80
2023-03-27T16:03:41.116Z,87.70
2023-03-27T16:06:46.644Z,88.60
2023-03-27T16:10:06.709Z,89.50
2023-03-27T16:13:25.576Z,89.30
2023-03-27T16:16:30.231Z,89.90
2023-03-27T16:19:48.083Z,90.00
2023-03-27T16:22:50.977Z,88.30
2023-03-27T16:25:52.722Z,89.80
2023-03-27T16:29:03.830Z,89.90
2023-03-27T16:32:05.770Z,90.20
2023-03-27T16:35:07.686Z,90.20
2023-03-27T16:38:09.250Z,90.30
2023-03-27T16:41:15.662Z,90.20
2023-03-27T16:44:18.823Z,90.30
2023-03-27T16:47:22.755Z,89.90
2023-03-27T16:50:26.691Z,89.30
2023-03-27T16:53:28.291Z,89.80
2023-03-27T16:56:30.069Z,89.70
2023-03-27T16:59:31.624Z,90.30
2023-03-27T17:02:34.967Z,89.80
2023-03-27T17:05:37.025Z,89.90
2023-03-27T17:08:38.677Z,88.90
2023-03-27T17:11:40.653Z,90.20
2023-03-27T17:14:42.381Z,90.50
2023-03-27T17:17:44.961Z,90.80
2023-03-27T17:20:46.681Z,90.90
2023-03-27T17:23:48.692Z,90.70
2023-03-27T17:26:50.357Z,91.00
2023-03-27T17:29:51.921Z,91.00
2023-03-27T17:32:53.867Z,91.10
2023-03-27T17:35:56.920Z,91.40
2023-03-27T17:39:02.429Z,91.50
2023-03-27T17:42:04.132Z,91.40
2023-03-27T17:45:06.544Z,91.30
2023-03-27T17:48:10.637Z,91.30
2023-03-27T17:51:12.193Z,91.50
2023-03-27T17:54:13.879Z,91.40
2023-03-27T17:57:15.785Z,91.30
2023-03-27T18:00:17.963Z,91.50
2023-03-27T18:03:20.232Z,91.60
2023-03-27T18:06:21.924Z,91.80
2023-03-27T18:09:23.527Z,91.70
2023-03-27T18:12:25.504Z,91.70
2023-03-27T18:15:27.318Z,91.90
2023-03-27T18:18:28.897Z,91.90
2023-03-27T18:21:30.761Z,92.00
2023-03-27T18:24:32.395Z,92.10
2023-03-27T18:27:39.781Z,92.70
2023-03-27T18:30:43.239Z,92.30
2023-03-27T18:33:46.015Z,92.40
2023-03-27T18:36:51.533Z,92.30
2023-03-27T18:39:53.051Z,92.50
2023-03-27T18:42:54.600Z,92.70
2023-03-27T18:45:58.136Z,92.40
2023-03-27T18:49:07.422Z,92.60
2023-03-27T18:52:15.477Z,92.50
2023-03-27T18:55:18.461Z,92.70
2023-03-27T18:58:24.030Z,92.50
2023-03-27T19:01:26.684Z,92.60
2023-03-27T19:04:28.730Z,92.60
2023-03-27T19:07:30.741Z,92.10
2023-03-27T19:10:35.396Z,92.60
2023-03-27T19:13:36.968Z,92.80
2023-03-27T19:16:38.582Z,92.70
2023-03-27T19:19:41.269Z,92.70
2023-03-27T19:22:42.867Z,92.90
2023-03-27T19:25:52.995Z,92.80
2023-03-27T19:28:55.806Z,93.00
2023-03-27T19:31:58.504Z,92.90
2023-03-27T19:35:00.111Z,93.00
2023-03-27T19:38:02.831Z,93.30
2023-03-27T19:41:08.335Z,93.20
2023-03-27T19:44:11.049Z,93.40
2023-03-27T19:47:12.695Z,93.40
2023-03-27T19:50:15.890Z,93.30
2023-03-27T19:53:17.931Z,93.60
2023-03-27T19:56:19.573Z,93.50
2023-03-27T19:59:30.379Z,93.30
2023-03-27T20:02:32.612Z,93.00
2023-03-27T20:05:36.772Z,93.20
2023-03-27T20:08:38.398Z,93.20
2023-03-27T20:11:41.698Z,93.10
2023-03-27T20:14:46.516Z,93.10
2023-03-27T20:17:52.737Z,93.10
2023-03-27T20:20:54.637Z,93.40
2023-03-27T20:23:56.525Z,93.10
2023-03-27T20:26:58.244Z,93.10
2023-03-27T20:30:01.836Z,95.40
2023-03-27T20:33:04.675Z,93.10
2023-03-27T20:36:06.529Z,93.40
2023-03-27T20:39:08.332Z,93.10
2023-03-27T20:42:14.930Z,93.20
2023-03-27T20:45:19.385Z,93.30
2023-03-27T20:48:21.932Z,92.90
2023-03-27T20:51:24.579Z,93.10
2023-03-27T20:54:27.266Z,93.50
2023-03-27T20:57:30.218Z,93.10
2023-03-27T21:00:31.874Z,93.30
2023-03-27T21:03:42.596Z,93.20
2023-03-27T21:06:44.198Z,92.50
2023-03-27T21:09:45.788Z,93.20
2023-03-27T21:12:48.351Z,93.00
2023-03-27T21:15:49.915Z,93.10
2023-03-27T21:18:51.569Z,93.10
2023-03-27T21:21:53.192Z,93.30
2023-03-27T21:24:54.789Z,93.20
2023-03-27T21:27:57.453Z,93.10
2023-03-27T21:31:00.206Z,92.50
2023-03-27T21:34:01.736Z,93.20
2023-03-27T21:37:03.525Z,93.20
2023-03-27T21:40:07.373Z,93.30
2023-03-27T21:43:09.144Z,93.10
2023-03-27T21:46:11.083Z,93.30
2023-03-27T21:49:13.063Z,93.20
2023-03-27T21:52:14.652Z,93.20
2023-03-27T21:55:16.321Z,93.10
2023-03-27T21:58:17.888Z,93.20
2023-03-27T22:01:19.505Z,93.20
2023-03-27T22:04:21.797Z,93.20
2023-03-27T22:07:23.717Z,93.10
2023-03-27T22:10:25.296Z,92.90
2023-03-27T22:13:27.516Z,93.40
2023-03-27T22:16:29.161Z,93.30
2023-03-27T22:19:31.058Z,93.30
2023-03-27T22:22:35.568Z,93.50
2023-03-27T22:25:37.211Z,93.20
2023-03-27T22:28:38.847Z,93.20
2023-03-27T22:31:40.710Z,93.30
2023-03-27T22:34:42.307Z,93.30
2023-03-27T22:37:43.838Z,93.30
2023-03-27T22:40:45.423Z,93.30
2023-03-27T22:43:49.532Z,93.30
2023-03-27T22:46:52.860Z,93.50
2023-03-27T22:49:54.596Z,93.60
2023-03-27T22:52:56.124Z,93.60
2023-03-27T22:55:58.883Z,93.90
2023-03-27T22:59:00.752Z,93.90
2023-03-27T23:02:02.387Z,94.00
2023-03-27T23:05:04.256Z,94.00
2023-03-27T23:08:05.989Z,93.90
2023-03-27T23:11:07.551Z,93.90
2023-03-27T23:14:09.664Z,94.00
2023-03-27T23:17:11.270Z,94.00
2023-03-27T23:20:12.902Z,94.10
2023-03-27T23:23:14.445Z,94.10
2023-03-27T23:26:17.932Z,94.10
2023-03-27T23:29:19.512Z,94.00
2023-03-27T23:32:21.186Z,94.10
2023-03-27T23:35:22.721Z,94.50
2023-03-27T23:38:24.274Z,94.20
2023-03-27T23:41:25.990Z,94.20
2023-03-27T23:44:27.575Z,94.30
2023-03-27T23:47:29.194Z,94.20
2023-03-27T23:50:30.776Z,94.30
2023-03-27T23:53:32.729Z,94.40
2023-03-27T23:56:34.342Z,94.40
2023-03-27T23:59:37.877Z,94.30
